Time;durP1;ratioP1;P1;durP2;ratioP2;P2;SDS_P1;SDS_P2;PMS_P1;PMS_P2;Temp;Humidity;BMP_temperature;BMP_pressure;BME280_temperature;BME280_humidity;BME280_pressure;Samples;Min_cycle;Max_cycle;Signal;HPM_P1;HPM_P2
2022/08/15 00:00:36;;;;;;;8.85;6.95;;;;;;;;;;5054025;28;20071;-88
2022/08/15 00:03:03;;;;;;;8.80;6.95;;;;;;;;;;5052946;28;20478;-79
2022/08/15 00:05:33;;;;;;;8.27;7.03;;;;;;;;;;5051501;28;20033;-68
2022/08/15 00:07:59;;;;;;;9.32;7.43;;;;;;;;;;5053303;28;20033;-77
2022/08/15 00:10:25;;;;;;;9.15;7.70;;;;;;;;;;5050089;28;20036;-86
2022/08/15 00:12:51;;;;;;;9.25;7.15;;;;;;;;;;5051866;28;20033;-68
2022/08/15 00:15:19;;;;;;;8.13;7.30;;;;;;;;;;5052419;28;20029;-68
2022/08/15 00:17:46;;;;;;;8.93;7.53;;;;;;;;;;5052450;28;20047;-68
2022/08/15 00:20:13;;;;;;;9.57;7.65;;;;;;;;;;5051605;28;20043;-70
2022/08/15 00:22:46;;;;;;;8.77;7.85;;;;;;;;;;5052333;28;20525;-70
2022/08/15 00:25:12;;;;;;;10.43;7.35;;;;;;;;;;5051390;28;20044;-69
2022/08/15 00:27:38;;;;;;;10.18;8.10;;;;;;;;;;5052100;28;20032;-71
2022/08/15 00:30:05;;;;;;;8.90;7.40;;;;;;;;;;5053225;28;20025;-72
2022/08/15 00:32:33;;;;;;;9.63;7.93;;;;;;;;;;5053048;28;20104;-84
2022/08/15 00:34:59;;;;;;;10.07;7.60;;;;;;;;;;5052497;28;20032;-67
2022/08/15 00:37:25;;;;;;;9.13;7.90;;;;;;;;;;5049745;28;20085;-85
2022/08/15 00:39:51;;;;;;;9.80;8.05;;;;;;;;;;5051894;28;20029;-68
2022/08/15 00:42:20;;;;;;;9.45;8.00;;;;;;;;;;5052963;28;20029;-71
2022/08/15 00:44:46;;;;;;;10.80;8.57;;;;;;;;;;5050996;28;20494;-79
2022/08/15 00:47:17;;;;;;;9.95;8.32;;;;;;;;;;5047957;28;20490;-85
2022/08/15 00:49:44;;;;;;;10.25;8.05;;;;;;;;;;5048919;28;20087;-71
2022/08/15 00:52:10;;;;;;;11.35;8.57;;;;;;;;;;5052143;28;20036;-78
2022/08/15 00:54:56;;;;;;;8.85;7.78;;;;;;;;;;5052362;28;20075;-70
2022/08/15 00:57:31;;;;;;;10.38;8.07;;;;;;;;;;5050562;28;20049;-76
2022/08/15 00:59:59;;;;;;;8.93;8.02;;;;;;;;;;5052110;28;20122;-68
2022/08/15 01:02:27;;;;;;;9.50;8.50;;;;;;;;;;5051739;28;20029;-86
2022/08/15 01:04:54;;;;;;;9.52;8.13;;;;;;;;;;5050464;28;20031;-73
2022/08/15 01:07:21;;;;;;;11.50;7.97;;;;;;;;;;5052472;28;20017;-85
2022/08/15 01:09:48;;;;;;;11.18;7.82;;;;;;;;;;5051575;28;20064;-84
2022/08/15 01:12:16;;;;;;;9.15;7.82;;;;;;;;;;5051882;28;20071;-75
2022/08/15 01:14:45;;;;;;;11.60;7.85;;;;;;;;;;5049637;28;20029;-68
2022/08/15 01:17:12;;;;;;;9.13;8.23;;;;;;;;;;5051139;28;20078;-70
2022/08/15 01:19:44;;;;;;;9.55;7.85;;;;;;;;;;5051150;28;20181;-68
2022/08/15 01:22:10;;;;;;;12.15;8.27;;;;;;;;;;5048562;28;20029;-79
2022/08/15 01:24:37;;;;;;;11.18;8.02;;;;;;;;;;5054106;28;20021;-71
2022/08/15 01:27:03;;;;;;;10.75;8.40;;;;;;;;;;5054593;28;20029;-68
2022/08/15 01:29:29;;;;;;;10.40;7.93;;;;;;;;;;5050319;28;20025;-68
2022/08/15 01:31:56;;;;;;;10.48;8.18;;;;;;;;;;5052140;28;20025;-67
2022/08/15 01:34:22;;;;;;;9.60;7.88;;;;;;;;;;5051832;28;20028;-85
2022/08/15 01:36:49;;;;;;;10.25;8.05;;;;;;;;;;5051972;28;20037;-67
2022/08/15 01:39:19;;;;;;;10.73;7.97;;;;;;;;;;5051108;28;20086;-85
2022/08/15 01:42:01;;;;;;;11.95;8.60;;;;;;;;;;5050129;28;22095;-70
2022/08/15 01:44:27;;;;;;;9.88;8.57;;;;;;;;;;5048217;28;20068;-68
2022/08/15 01:46:58;;;;;;;9.93;8.52;;;;;;;;;;5052173;28;20017;-86
2022/08/15 01:49:32;;;;;;;10.88;8.05;;;;;;;;;;5049067;28;20126;-83
2022/08/15 01:51:59;;;;;;;14.60;8.65;;;;;;;;;;5049673;28;20021;-71
2022/08/15 01:54:26;;;;;;;11.02;8.43;;;;;;;;;;5052086;28;20075;-68
2022/08/15 01:56:53;;;;;;;9.25;8.27;;;;;;;;;;5051618;28;20033;-69
2022/08/15 01:59:21;;;;;;;16.45;11.93;;;;;;;;;;5050752;28;20025;-68
2022/08/15 02:01:50;;;;;;;21.52;18.33;;;;;;;;;;5044127;28;20103;-70
2022/08/15 02:04:17;;;;;;;32.00;25.67;;;;;;;;;;5051923;28;20027;-68
2022/08/15 02:06:44;;;;;;;21.35;18.23;;;;;;;;;;5052233;28;20036;-81
2022/08/15 02:09:12;;;;;;;14.52;13.02;;;;;;;;;;5051557;28;20021;-68
2022/08/15 02:11:39;;;;;;;13.15;9.60;;;;;;;;;;5049330;28;20016;-68
2022/08/15 02:14:06;;;;;;;9.57;8.55;;;;;;;;;;5051905;28;20033;-85
2022/08/15 02:16:35;;;;;;;12.07;8.57;;;;;;;;;;5042835;28;20518;-69
2022/08/15 02:19:02;;;;;;;10.25;8.32;;;;;;;;;;5048552;28;20037;-68
2022/08/15 02:21:28;;;;;;;10.43;7.53;;;;;;;;;;5051617;28;20064;-68
2022/08/15 02:23:54;;;;;;;9.13;8.10;;;;;;;;;;5049029;28;20021;-70
2022/08/15 02:26:20;;;;;;;10.55;8.63;;;;;;;;;;5051651;28;20024;-83
2022/08/15 02:28:47;;;;;;;11.02;8.35;;;;;;;;;;5051531;28;20036;-69
2022/08/15 02:31:16;;;;;;;11.52;8.18;;;;;;;;;;5049921;28;20013;-68
2022/08/15 02:34:02;;;;;;;9.52;8.40;;;;;;;;;;5050048;28;20028;-70
2022/08/15 02:36:31;;;;;;;12.30;8.50;;;;;;;;;;5054947;28;20033;-68
2022/08/15 02:38:58;;;;;;;10.55;8.73;;;;;;;;;;5055668;28;20028;-82
2022/08/15 02:41:30;;;;;;;9.68;7.82;;;;;;;;;;5054600;28;20021;-67
2022/08/15 02:43:57;;;;;;;11.38;8.18;;;;;;;;;;5051560;28;20061;-69
2022/08/15 02:46:23;;;;;;;8.82;7.93;;;;;;;;;;5058693;28;20352;-79
2022/08/15 02:48:50;;;;;;;10.13;8.10;;;;;;;;;;5052545;28;20398;-68
2022/08/15 02:51:18;;;;;;;11.43;8.27;;;;;;;;;;5052905;28;20546;-81
2022/08/15 02:53:47;;;;;;;10.25;8.10;;;;;;;;;;5052858;28;20052;-68
2022/08/15 02:56:13;;;;;;;9.10;8.20;;;;;;;;;;5054855;28;20028;-68
2022/08/15 02:58:39;;;;;;;8.50;7.53;;;;;;;;;;5054602;28;20465;-85
2022/08/15 03:01:08;;;;;;;9.50;8.50;;;;;;;;;;5054891;28;20367;-80
2022/08/15 03:03:38;;;;;;;11.52;8.63;;;;;;;;;;5054749;28;20417;-67
2022/08/15 03:06:07;;;;;;;10.20;8.07;;;;;;;;;;5053602;28;20478;-74
2022/08/15 03:08:33;;;;;;;12.02;8.43;;;;;;;;;;5054541;28;20533;-71
2022/08/15 03:10:59;;;;;;;12.77;8.95;;;;;;;;;;5053539;28;20029;-73
2022/08/15 03:13:26;;;;;;;11.43;8.25;;;;;;;;;;5053726;28;20550;-68
2022/08/15 03:15:53;;;;;;;12.82;8.68;;;;;;;;;;5056822;28;20085;-81
2022/08/15 03:18:20;;;;;;;12.18;8.13;;;;;;;;;;5062617;28;20071;-85
2022/08/15 03:20:47;;;;;;;10.30;8.50;;;;;;;;;;5054208;28;20804;-68
2022/08/15 03:23:14;;;;;;;13.65;8.43;;;;;;;;;;5036154;28;20068;-68
2022/08/15 03:25:45;;;;;;;9.68;7.93;;;;;;;;;;5052003;28;20486;-82
2022/08/15 03:28:12;;;;;;;9.23;8.30;;;;;;;;;;5053321;28;20032;-68
2022/08/15 03:30:39;;;;;;;10.27;8.55;;;;;;;;;;5054202;28;20078;-68
2022/08/15 03:33:06;;;;;;;10.93;8.50;;;;;;;;;;5054713;28;20467;-71
2022/08/15 03:35:37;;;;;;;9.15;8.20;;;;;;;;;;5055291;28;20170;-79
2022/08/15 03:38:03;;;;;;;11.10;8.45;;;;;;;;;;5054628;28;20374;-67
2022/08/15 03:40:29;;;;;;;9.68;8.13;;;;;;;;;;5054838;28;20033;-68
2022/08/15 03:42:57;;;;;;;10.75;8.40;;;;;;;;;;5052989;28;20103;-78
2022/08/15 03:45:24;;;;;;;9.95;7.90;;;;;;;;;;5054118;28;20136;-82
2022/08/15 03:47:50;;;;;;;9.95;8.38;;;;;;;;;;5048485;28;20426;-79
2022/08/15 03:50:16;;;;;;;11.00;8.10;;;;;;;;;;5054447;28;20441;-84
2022/08/15 03:52:53;;;;;;;10.82;8.30;;;;;;;;;;5054544;28;20029;-68
2022/08/15 03:55:19;;;;;;;10.70;8.65;;;;;;;;;;5054427;28;20029;-68
2022/08/15 03:57:46;;;;;;;11.10;8.50;;;;;;;;;;5053528;28;20394;-73
2022/08/15 04:00:13;;;;;;;11.32;8.40;;;;;;;;;;5055656;28;20025;-68
2022/08/15 04:02:39;;;;;;;12.93;8.15;;;;;;;;;;5063604;28;20085;-84
2022/08/15 04:05:07;;;;;;;11.32;8.35;;;;;;;;;;5075452;28;20036;-71
2022/08/15 04:07:34;;;;;;;12.18;8.57;;;;;;;;;;5054774;28;20100;-78
2022/08/15 04:10:00;;;;;;;9.70;8.20;;;;;;;;;;5053235;28;20021;-67
2022/08/15 04:12:30;;;;;;;13.25;8.43;;;;;;;;;;5052338;28;20083;-82
2022/08/15 04:14:56;;;;;;;10.95;9.63;;;;;;;;;;5054443;28;20040;-79
2022/08/15 04:17:23;;;;;;;10.55;8.38;;;;;;;;;;5052526;28;20037;-67
2022/08/15 04:19:50;;;;;;;11.57;8.98;;;;;;;;;;5050863;28;20048;-67
2022/08/15 04:22:17;;;;;;;17.23;14.02;;;;;;;;;;5049368;28;20017;-78
2022/08/15 04:24:43;;;;;;;22.67;16.88;;;;;;;;;;5056069;28;20063;-74
2022/08/15 04:27:09;;;;;;;14.35;11.32;;;;;;;;;;5055602;28;20017;-79
2022/08/15 04:29:35;;;;;;;13.80;9.32;;;;;;;;;;5049161;28;20035;-67
2022/08/15 04:32:01;;;;;;;14.68;9.55;;;;;;;;;;5052919;28;20032;-71
2022/08/15 04:34:28;;;;;;;12.95;9.05;;;;;;;;;;5052228;28;20111;-68
2022/08/15 04:36:54;;;;;;;13.40;8.68;;;;;;;;;;5052859;28;20207;-68
2022/08/15 04:39:20;;;;;;;17.15;9.13;;;;;;;;;;5059092;28;20071;-86
2022/08/15 04:41:46;;;;;;;17.65;9.93;;;;;;;;;;5045325;28;20030;-77
2022/08/15 04:44:12;;;;;;;12.90;9.00;;;;;;;;;;5047325;28;20045;-84
2022/08/15 04:46:38;;;;;;;14.38;9.00;;;;;;;;;;5051347;28;20021;-68
2022/08/15 04:49:04;;;;;;;14.48;9.23;;;;;;;;;;5049296;28;20036;-74
2022/08/15 04:51:30;;;;;;;15.50;9.07;;;;;;;;;;5049885;28;20025;-72
2022/08/15 04:53:56;;;;;;;11.52;8.85;;;;;;;;;;5049923;28;20029;-69
2022/08/15 04:56:22;;;;;;;14.80;8.88;;;;;;;;;;5049808;28;20033;-69
2022/08/15 04:58:49;;;;;;;13.18;8.48;;;;;;;;;;5050503;28;20033;-70
2022/08/15 05:01:15;;;;;;;9.48;7.70;;;;;;;;;;5051313;28;20075;-68
2022/08/15 05:03:41;;;;;;;9.05;7.82;;;;;;;;;;5051276;28;20028;-81
2022/08/15 05:06:09;;;;;;;10.88;8.63;;;;;;;;;;5050255;28;20099;-73
2022/08/15 05:08:36;;;;;;;11.05;8.20;;;;;;;;;;5046676;28;20025;-74
2022/08/15 05:11:05;;;;;;;9.20;7.95;;;;;;;;;;5047495;28;20024;-75
2022/08/15 05:13:35;;;;;;;11.68;7.82;;;;;;;;;;5050684;28;20111;-68
2022/08/15 05:16:01;;;;;;;10.98;8.30;;;;;;;;;;5050831;28;20075;-76
2022/08/15 05:18:29;;;;;;;17.17;8.80;;;;;;;;;;5030214;28;20445;-75
2022/08/15 05:20:55;;;;;;;16.85;7.75;;;;;;;;;;5051748;28;20029;-71
2022/08/15 05:23:23;;;;;;;14.77;7.80;;;;;;;;;;5049609;28;20124;-74
2022/08/15 05:25:54;;;;;;;9.80;7.60;;;;;;;;;;5050567;28;20052;-69
2022/08/15 05:28:20;;;;;;;8.30;6.88;;;;;;;;;;5051128;28;20478;-72
2022/08/15 05:30:47;;;;;;;17.75;7.28;;;;;;;;;;5052680;28;20032;-71
2022/08/15 05:33:16;;;;;;;10.85;7.97;;;;;;;;;;5050716;28;20120;-69
2022/08/15 05:35:47;;;;;;;8.60;6.93;;;;;;;;;;5038330;28;20494;-71
2022/08/15 05:38:21;;;;;;;10.45;7.55;;;;;;;;;;5049580;28;20520;-78
2022/08/15 05:40:51;;;;;;;9.55;7.10;;;;;;;;;;5044554;28;20029;-72
2022/08/15 05:43:26;;;;;;;10.48;8.02;;;;;;;;;;5046378;28;20025;-75
2022/08/15 05:45:58;;;;;;;10.77;7.80;;;;;;;;;;5042853;28;20041;-69
2022/08/15 05:48:31;;;;;;;11.15;7.55;;;;;;;;;;5046773;28;20021;-67
2022/08/15 05:51:09;;;;;;;7.82;6.90;;;;;;;;;;5052979;28;20040;-71
2022/08/15 05:53:37;;;;;;;8.88;7.80;;;;;;;;;;5051069;28;20033;-86
2022/08/15 05:56:21;;;;;;;11.63;7.07;;;;;;;;;;5055462;28;20036;-90
2022/08/15 05:59:09;;;;;;;7.75;7.00;;;;;;;;;;5042494;28;20041;-83
2022/08/15 06:01:38;;;;;;;8.32;7.00;;;;;;;;;;5051578;28;20107;-82
2022/08/15 06:04:10;;;;;;;10.85;7.32;;;;;;;;;;5042441;28;20021;-73
2022/08/15 06:06:38;;;;;;;11.80;7.07;;;;;;;;;;5051685;28;20098;-76
2022/08/15 06:09:33;;;;;;;9.35;6.55;;;;;;;;;;5051645;28;20029;-76
2022/08/15 06:12:01;;;;;;;9.32;6.63;;;;;;;;;;4955714;29;20490;-75
2022/08/15 06:14:29;;;;;;;11.20;6.80;;;;;;;;;;4951746;28;20113;-74
2022/08/15 06:16:59;;;;;;;10.85;6.95;;;;;;;;;;4954415;28;20078;-83
2022/08/15 06:19:31;;;;;;;7.53;6.65;;;;;;;;;;4954242;28;20031;-81
2022/08/15 06:22:05;;;;;;;8.07;7.00;;;;;;;;;;4947990;28;20039;-80
2022/08/15 06:24:43;;;;;;;6.93;6.22;;;;;;;;;;4946467;28;20051;-76
2022/08/15 06:27:28;;;;;;;8.18;6.70;;;;;;;;;;4952590;28;20047;-80
2022/08/15 06:29:54;;;;;;;8.00;6.75;;;;;;;;;;4951144;28;20046;-71
2022/08/15 06:32:23;;;;;;;11.68;7.50;;;;;;;;;;4953867;28;20189;-73
2022/08/15 06:35:09;;;;;;;7.88;6.78;;;;;;;;;;4954995;28;20036;-74
2022/08/15 06:37:35;;;;;;;16.67;8.60;;;;;;;;;;4961733;28;20099;-82
2022/08/15 06:40:20;;;;;;;7.43;6.43;;;;;;;;;;4954545;28;20496;-84
2022/08/15 06:42:46;;;;;;;8.40;6.28;;;;;;;;;;4962713;28;20066;-75
2022/08/15 06:45:18;;;;;;;8.15;7.07;;;;;;;;;;4952983;28;20047;-91
2022/08/15 06:47:46;;;;;;;7.93;7.13;;;;;;;;;;4960457;28;20090;-90
2022/08/15 06:50:20;;;;;;;8.13;6.75;;;;;;;;;;5053345;28;20025;-92
2022/08/15 06:52:59;;;;;;;14.95;7.75;;;;;;;;;;5055431;28;20021;-94
2022/08/15 06:55:26;;;;;;;13.18;11.65;;;;;;;;;;5039438;28;20040;-83
2022/08/15 06:58:07;;;;;;;14.75;9.38;;;;;;;;;;5034701;28;20021;-78
2022/08/15 07:00:41;;;;;;;12.63;11.45;;;;;;;;;;5050815;28;20035;-73
2022/08/15 07:03:13;;;;;;;7.78;7.07;;;;;;;;;;5050706;28;20031;-75
2022/08/15 07:05:42;;;;;;;10.75;7.65;;;;;;;;;;5053275;28;20028;-79
2022/08/15 07:08:08;;;;;;;7.75;7.00;;;;;;;;;;5052119;28;20021;-76
2022/08/15 07:10:34;;;;;;;8.35;6.78;;;;;;;;;;5051664;28;20104;-71
2022/08/15 07:13:18;;;;;;;7.43;6.72;;;;;;;;;;5055047;28;20056;-70
2022/08/15 07:15:44;;;;;;;7.25;6.50;;;;;;;;;;5051122;28;20033;-70
2022/08/15 07:18:14;;;;;;;7.43;6.72;;;;;;;;;;5051349;28;20085;-75
2022/08/15 07:20:41;;;;;;;7.82;6.95;;;;;;;;;;5052358;28;20037;-74
2022/08/15 07:23:16;;;;;;;9.50;6.72;;;;;;;;;;5052604;28;20029;-72
2022/08/15 07:25:45;;;;;;;8.38;6.82;;;;;;;;;;5051564;28;20013;-70
2022/08/15 07:28:11;;;;;;;10.13;6.78;;;;;;;;;;5052557;28;20020;-66
2022/08/15 07:30:37;;;;;;;10.70;6.68;;;;;;;;;;5060230;28;20079;-67
2022/08/15 07:33:04;;;;;;;9.32;7.00;;;;;;;;;;5053841;28;20150;-66
2022/08/15 07:35:34;;;;;;;11.30;7.10;;;;;;;;;;5050863;28;20439;-74
2022/08/15 07:38:02;;;;;;;9.05;6.78;;;;;;;;;;5059324;28;20021;-67
2022/08/15 07:40:28;;;;;;;8.82;6.85;;;;;;;;;;5051548;28;20104;-67
2022/08/15 07:42:54;;;;;;;8.60;7.05;;;;;;;;;;5057364;28;20171;-73
2022/08/15 07:45:31;;;;;;;11.23;6.63;;;;;;;;;;5053662;28;20040;-70
2022/08/15 07:48:03;;;;;;;12.32;6.40;;;;;;;;;;5040693;28;20040;-72
2022/08/15 07:50:41;;;;;;;8.43;6.45;;;;;;;;;;5041855;28;20039;-68
2022/08/15 07:53:19;;;;;;;9.93;6.88;;;;;;;;;;5053162;28;20497;-73
2022/08/15 07:56:15;;;;;;;9.25;6.55;;;;;;;;;;5049172;28;20041;-69
2022/08/15 07:58:42;;;;;;;13.43;6.25;;;;;;;;;;4967231;28;20050;-72
2022/08/15 08:01:17;;;;;;;10.38;6.55;;;;;;;;;;4973012;28;20049;-71
2022/08/15 08:03:45;;;;;;;9.32;7.38;;;;;;;;;;4971622;28;20194;-68
2022/08/15 08:06:14;;;;;;;13.52;6.80;;;;;;;;;;4972094;28;20424;-67
2022/08/15 08:09:01;;;;;;;7.63;6.80;;;;;;;;;;4968517;28;20496;-69
2022/08/15 08:11:38;;;;;;;8.07;6.80;;;;;;;;;;4969308;28;20111;-69
2022/08/15 08:14:27;;;;;;;9.57;7.07;;;;;;;;;;4965355;28;20460;-66
2022/08/15 08:16:55;;;;;;;12.05;6.72;;;;;;;;;;4912115;29;20088;-65
2022/08/15 08:19:34;;;;;;;14.18;7.28;;;;;;;;;;4913744;29;20052;-68
2022/08/15 08:22:00;;;;;;;12.52;6.53;;;;;;;;;;4910954;29;20541;-67
2022/08/15 08:24:32;;;;;;;8.98;6.80;;;;;;;;;;4911865;29;20032;-70
2022/08/15 08:27:13;;;;;;;9.13;6.18;;;;;;;;;;4914721;29;20536;-69
2022/08/15 08:29:45;;;;;;;8.27;6.72;;;;;;;;;;4913226;29;20186;-68
2022/08/15 08:32:20;;;;;;;17.42;6.75;;;;;;;;;;4910291;29;20115;-68
2022/08/15 08:35:05;;;;;;;11.07;6.80;;;;;;;;;;4928941;28;20070;-67
2022/08/15 08:37:41;;;;;;;9.25;6.75;;;;;;;;;;4985443;28;20027;-77
2022/08/15 08:43:05;;;;;;;9.70;6.85;;;;;;;;;;4971578;28;20101;-65
2022/08/15 08:45:35;;;;;;;10.82;6.80;;;;;;;;;;4969387;28;20097;-66
2022/08/15 08:48:19;;;;;;;9.35;6.43;;;;;;;;;;4976737;28;20507;-65
2022/08/15 08:50:53;;;;;;;18.58;7.38;;;;;;;;;;4969013;28;20587;-70
2022/08/15 08:53:38;;;;;;;8.38;6.05;;;;;;;;;;4987402;28;20064;-80
2022/08/15 08:56:14;;;;;;;6.32;5.38;;;;;;;;;;5049272;28;20121;-83
2022/08/15 08:59:02;;;;;;;6.90;5.93;;;;;;;;;;5053420;28;20079;-78
2022/08/15 09:01:31;;;;;;;8.02;5.88;;;;;;;;;;5054510;28;20033;-80
2022/08/15 09:03:59;;;;;;;7.00;5.80;;;;;;;;;;5049370;28;20108;-79
2022/08/15 09:06:26;;;;;;;6.93;5.82;;;;;;;;;;5032250;28;20041;-75
2022/08/15 09:09:05;;;;;;;8.38;6.20;;;;;;;;;;5047000;28;20028;-77
2022/08/15 09:11:37;;;;;;;21.05;7.43;;;;;;;;;;5055398;28;20029;-68
2022/08/15 09:14:36;;;;;;;10.45;6.32;;;;;;;;;;5052524;28;20021;-71
2022/08/15 09:17:09;;;;;;;7.95;5.72;;;;;;;;;;4991905;28;20065;-87
2022/08/15 09:19:50;;;;;;;9.73;6.38;;;;;;;;;;4992622;28;20065;-85
2022/08/15 09:22:17;;;;;;;7.43;5.93;;;;;;;;;;4989639;28;20061;-87
2022/08/15 09:24:43;;;;;;;15.35;6.05;;;;;;;;;;4995784;28;20066;-77
2022/08/15 09:27:12;;;;;;;13.25;6.63;;;;;;;;;;4989410;28;20146;-81
2022/08/15 09:29:44;;;;;;;14.02;6.47;;;;;;;;;;4992938;28;20026;-77
2022/08/15 09:32:20;;;;;;;11.15;6.18;;;;;;;;;;4995351;28;20031;-82
2022/08/15 09:34:56;;;;;;;8.93;6.03;;;;;;;;;;4984464;28;20027;-78
2022/08/15 09:37:22;;;;;;;9.77;6.43;;;;;;;;;;4987918;28;20568;-79
2022/08/15 09:40:10;;;;;;;7.97;5.78;;;;;;;;;;4989209;28;20493;-81
2022/08/15 09:42:50;;;;;;;9.25;6.53;;;;;;;;;;4997987;28;20819;-78
2022/08/15 09:45:16;;;;;;;9.90;6.00;;;;;;;;;;4993148;28;20047;-84
2022/08/15 09:48:00;;;;;;;10.90;6.03;;;;;;;;;;4991860;28;20041;-70
2022/08/15 09:50:49;;;;;;;16.48;6.35;;;;;;;;;;4992995;28;20029;-83
2022/08/15 09:53:24;;;;;;;8.18;6.07;;;;;;;;;;5031658;28;20075;-74
2022/08/15 09:55:51;;;;;;;9.52;5.70;;;;;;;;;;5054507;28;20095;-79
2022/08/15 09:58:25;;;;;;;7.78;6.43;;;;;;;;;;5053616;28;20032;-75
2022/08/15 10:00:58;;;;;;;10.45;6.22;;;;;;;;;;5055550;28;20620;-77
2022/08/15 10:03:24;;;;;;;;;;;;;;;;;;5063423;28;20047;-75
2022/08/15 10:06:02;;;;;;;30.02;8.80;;;;;;;;;;5053913;28;20380;-75
2022/08/15 10:08:47;;;;;;;32.70;8.63;;;;;;;;;;5055569;28;20112;-78
2022/08/15 10:11:13;;;;;;;77.15;12.65;;;;;;;;;;5053700;28;20041;-73
2022/08/15 10:13:39;;;;;;;42.72;10.15;;;;;;;;;;5055831;28;20486;-72
2022/08/15 10:16:26;;;;;;;13.57;6.68;;;;;;;;;;5050623;28;20124;-73
2022/08/15 10:18:54;;;;;;;87.00;13.57;;;;;;;;;;5056851;28;20029;-73
2022/08/15 10:21:22;;;;;;;200.20;25.20;;;;;;;;;;5058011;28;20437;-73
2022/08/15 10:23:52;;;;;;;122.90;19.98;;;;;;;;;;5057200;28;20037;-73
2022/08/15 10:26:24;;;;;;;17.25;7.03;;;;;;;;;;5056676;28;20089;-74
2022/08/15 10:28:59;;;;;;;82.07;15.13;;;;;;;;;;5047881;28;20118;-78
2022/08/15 10:31:27;;;;;;;75.47;13.48;;;;;;;;;;5051483;28;20016;-72
2022/08/15 10:33:57;;;;;;;122.38;18.65;;;;;;;;;;5057334;28;20100;-74
2022/08/15 10:36:26;;;;;;;105.18;17.10;;;;;;;;;;5053908;28;20467;-74
2022/08/15 10:39:18;;;;;;;39.95;11.05;;;;;;;;;;5057125;28;20052;-73
2022/08/15 10:42:11;;;;;;;29.58;9.43;;;;;;;;;;4990973;28;20065;-75
2022/08/15 10:44:47;;;;;;;22.55;9.40;;;;;;;;;;4953352;28;20398;-73
2022/08/15 10:47:19;;;;;;;27.98;9.00;;;;;;;;;;4989054;28;20045;-73
2022/08/15 10:49:45;;;;;;;30.73;9.57;;;;;;;;;;4990136;28;20173;-82
2022/08/15 10:52:11;;;;;;;18.55;8.27;;;;;;;;;;4990639;28;20474;-84
2022/08/15 10:54:49;;;;;;;8.40;6.50;;;;;;;;;;4992950;28;20036;-73
2022/08/15 10:57:17;;;;;;;9.70;7.18;;;;;;;;;;4988869;28;20061;-73
2022/08/15 10:59:46;;;;;;;10.25;6.82;;;;;;;;;;4990244;28;20544;-72
2022/08/15 11:02:18;;;;;;;10.57;6.97;;;;;;;;;;4990923;28;20428;-66
2022/08/15 11:04:45;;;;;;;11.15;7.00;;;;;;;;;;4992146;28;20042;-66
2022/08/15 11:07:40;;;;;;;36.22;9.52;;;;;;;;;;4994314;28;20109;-64
2022/08/15 11:10:17;;;;;;;12.80;8.23;;;;;;;;;;4915482;29;20083;-65
2022/08/15 11:12:45;;;;;;;11.77;7.25;;;;;;;;;;4915175;29;20052;-66
2022/08/15 11:15:29;;;;;;;16.45;7.13;;;;;;;;;;4919578;29;20040;-68
2022/08/15 11:18:03;;;;;;;9.38;6.70;;;;;;;;;;4928687;28;20493;-69
2022/08/15 11:20:35;;;;;;;10.90;6.97;;;;;;;;;;4974969;28;20042;-65
2022/08/15 11:23:01;;;;;;;7.85;6.00;;;;;;;;;;4975459;28;20034;-68
2022/08/15 11:25:32;;;;;;;18.50;7.97;;;;;;;;;;4973288;28;20042;-71
2022/08/15 11:28:04;;;;;;;10.77;6.47;;;;;;;;;;4972679;28;20058;-71
2022/08/15 11:30:32;;;;;;;14.47;7.47;;;;;;;;;;4973682;28;20067;-68
2022/08/15 11:33:19;;;;;;;14.32;6.65;;;;;;;;;;4978426;28;20088;-72
2022/08/15 11:35:45;;;;;;;10.82;6.05;;;;;;;;;;4956425;28;20098;-75
2022/08/15 11:38:12;;;;;;;12.15;6.47;;;;;;;;;;4956650;28;20055;-74
2022/08/15 11:40:41;;;;;;;15.57;6.35;;;;;;;;;;4974257;28;20034;-67
2022/08/15 11:43:13;;;;;;;28.25;8.02;;;;;;;;;;4975782;28;20038;-67
2022/08/15 11:45:41;;;;;;;39.78;9.45;;;;;;;;;;4987993;28;20494;-67
2022/08/15 11:48:11;;;;;;;64.15;12.10;;;;;;;;;;5061801;28;20075;-68
2022/08/15 11:50:39;;;;;;;55.40;11.63;;;;;;;;;;5053097;28;20033;-68
2022/08/15 11:53:07;;;;;;;46.70;11.80;;;;;;;;;;5052873;28;20032;-70
2022/08/15 11:55:33;;;;;;;28.23;8.88;;;;;;;;;;5055202;28;20043;-78
2022/08/15 11:58:02;;;;;;;38.38;9.77;;;;;;;;;;5049561;28;20021;-69
2022/08/15 12:00:30;;;;;;;111.72;21.30;;;;;;;;;;5050649;28;20040;-67
2022/08/15 12:02:57;;;;;;;56.53;12.20;;;;;;;;;;5053184;28;20033;-72
2022/08/15 12:05:31;;;;;;;90.22;15.63;;;;;;;;;;5052929;28;20033;-79
2022/08/15 12:07:59;;;;;;;44.42;11.80;;;;;;;;;;5052400;28;20037;-67
2022/08/15 12:10:30;;;;;;;58.38;11.73;;;;;;;;;;5050476;28;20076;-69
2022/08/15 12:12:56;;;;;;;28.92;9.48;;;;;;;;;;5051973;28;20082;-68
2022/08/15 12:15:25;;;;;;;26.70;8.77;;;;;;;;;;5064590;28;20036;-69
2022/08/15 12:18:08;;;;;;;16.90;7.28;;;;;;;;;;5042344;28;20128;-66
2022/08/15 12:20:34;;;;;;;;;;;;;;;;;;5053884;28;20066;-68
2022/08/15 12:23:21;;;;;;;9.38;6.50;;;;;;;;;;5051765;28;19963;-68
2022/08/15 12:25:58;;;;;;;32.83;9.73;;;;;;;;;;4972548;28;20043;-68
2022/08/15 12:28:25;;;;;;;25.35;8.75;;;;;;;;;;4972185;28;20035;-72
2022/08/15 12:30:55;;;;;;;18.17;7.97;;;;;;;;;;4979004;28;20035;-68
2022/08/15 12:33:22;;;;;;;27.60;9.25;;;;;;;;;;4979758;28;20035;-66
2022/08/15 12:35:48;;;;;;;15.50;7.07;;;;;;;;;;4971464;28;20035;-67
2022/08/15 12:38:15;;;;;;;12.70;7.03;;;;;;;;;;4972187;28;20047;-73
2022/08/15 12:40:41;;;;;;;35.13;9.60;;;;;;;;;;4982736;28;20388;-81
2022/08/15 12:43:08;;;;;;;41.33;10.32;;;;;;;;;;4965920;28;20461;-76
2022/08/15 12:45:34;;;;;;;47.95;11.63;;;;;;;;;;4970426;28;20042;-79
2022/08/15 12:48:00;;;;;;;12.52;6.35;;;;;;;;;;4954892;28;20035;-74
2022/08/15 12:50:26;;;;;;;37.33;8.82;;;;;;;;;;4974253;28;20043;-71
2022/08/15 12:52:53;;;;;;;40.08;10.75;;;;;;;;;;4973328;28;20038;-69
2022/08/15 12:55:19;;;;;;;8.90;6.13;;;;;;;;;;4980241;28;20413;-69
2022/08/15 12:57:45;;;;;;;31.30;9.63;;;;;;;;;;4980821;28;20050;-68
2022/08/15 13:00:12;;;;;;;45.95;10.82;;;;;;;;;;4974568;28;20027;-68
2022/08/15 13:02:40;;;;;;;34.85;9.07;;;;;;;;;;5003663;28;20139;-69
2022/08/15 13:05:08;;;;;;;30.88;9.27;;;;;;;;;;5048607;28;20033;-68
2022/08/15 13:07:36;;;;;;;92.57;14.77;;;;;;;;;;5051155;28;20020;-68
2022/08/15 13:10:02;;;;;;;26.92;11.13;;;;;;;;;;5049989;28;20075;-68
2022/08/15 13:12:28;;;;;;;39.28;17.70;;;;;;;;;;5053019;28;20037;-73
2022/08/15 13:14:54;;;;;;;72.03;32.60;;;;;;;;;;5056914;28;20055;-78
2022/08/15 13:17:20;;;;;;;36.60;22.02;;;;;;;;;;5051674;28;20510;-73
2022/08/15 13:25:19;;;;;;;40.95;9.63;;;;;;;;;;5050800;28;20052;-69
2022/08/15 13:27:48;;;;;;;56.78;12.70;;;;;;;;;;5051652;28;20075;-75
2022/08/15 13:30:14;;;;;;;10.40;6.50;;;;;;;;;;5050390;28;20021;-72
2022/08/15 13:32:41;;;;;;;33.35;10.30;;;;;;;;;;5051280;28;20487;-72
2022/08/15 13:35:09;;;;;;;33.72;9.27;;;;;;;;;;5052214;28;20063;-72
2022/08/15 13:37:37;;;;;;;19.58;7.55;;;;;;;;;;5052274;28;20136;-75
2022/08/15 13:40:03;;;;;;;20.58;7.60;;;;;;;;;;5047594;28;20092;-75
2022/08/15 13:42:29;;;;;;;27.75;7.90;;;;;;;;;;5049033;28;20036;-72
2022/08/15 13:44:56;;;;;;;14.32;6.90;;;;;;;;;;5050329;28;20513;-81
2022/08/15 13:47:23;;;;;;;51.28;11.02;;;;;;;;;;5052110;28;20099;-74
2022/08/15 13:49:49;;;;;;;12.75;6.70;;;;;;;;;;5050616;28;20425;-80
2022/08/15 13:52:16;;;;;;;13.82;6.40;;;;;;;;;;5050388;28;20029;-75
2022/08/15 13:54:42;;;;;;;28.27;9.15;;;;;;;;;;5052146;28;20025;-73
2022/08/15 13:57:08;;;;;;;27.80;8.43;;;;;;;;;;5051318;28;20041;-76
2022/08/15 13:59:34;;;;;;;11.93;6.00;;;;;;;;;;5034568;28;20394;-81
2022/08/15 14:02:02;;;;;;;24.85;7.40;;;;;;;;;;5051261;28;20096;-81
2022/08/15 14:04:38;;;;;;;19.08;6.93;;;;;;;;;;5051383;28;20028;-79
2022/08/15 14:07:05;;;;;;;23.17;7.32;;;;;;;;;;5051447;28;20032;-71
2022/08/15 14:09:32;;;;;;;21.40;6.55;;;;;;;;;;5049780;28;20053;-75
2022/08/15 14:11:58;;;;;;;16.75;6.93;;;;;;;;;;5056940;28;20025;-67
2022/08/15 14:14:25;;;;;;;15.50;6.78;;;;;;;;;;5050991;28;20534;-77
2022/08/15 14:16:52;;;;;;;34.22;8.15;;;;;;;;;;5051263;28;20049;-73
2022/08/15 14:19:19;;;;;;;14.38;6.70;;;;;;;;;;5045464;28;20155;-85
2022/08/15 14:21:46;;;;;;;22.17;6.65;;;;;;;;;;5060156;28;20078;-81
2022/08/15 14:24:12;;;;;;;49.08;11.25;;;;;;;;;;5033032;28;20024;-75
2022/08/15 14:26:40;;;;;;;26.20;8.13;;;;;;;;;;5050948;28;20024;-75
2022/08/15 14:29:08;;;;;;;54.85;10.90;;;;;;;;;;5050246;28;20032;-73
2022/08/15 14:31:34;;;;;;;21.52;6.40;;;;;;;;;;5048589;28;20021;-72
2022/08/15 14:34:00;;;;;;;26.02;7.10;;;;;;;;;;5054771;28;20040;-68
2022/08/15 14:36:27;;;;;;;23.75;8.05;;;;;;;;;;5055214;28;20036;-76
2022/08/15 14:38:58;;;;;;;93.07;15.25;;;;;;;;;;5059541;28;20013;-67
2022/08/15 14:41:25;;;;;;;18.73;6.93;;;;;;;;;;5026282;28;20032;-67
2022/08/15 14:43:51;;;;;;;35.03;9.48;;;;;;;;;;5054193;28;20033;-67
2022/08/15 14:46:17;;;;;;;14.77;6.18;;;;;;;;;;5054275;28;20051;-74
2022/08/15 14:48:44;;;;;;;19.63;6.43;;;;;;;;;;5052517;28;20113;-73
2022/08/15 14:51:15;;;;;;;13.00;6.40;;;;;;;;;;5054071;28;20499;-74
2022/08/15 14:53:43;;;;;;;29.40;9.10;;;;;;;;;;5051856;28;20025;-79
2022/08/15 14:56:09;;;;;;;10.45;5.40;;;;;;;;;;5054493;28;20029;-66
2022/08/15 14:58:36;;;;;;;11.73;5.70;;;;;;;;;;5057491;28;20032;-66